sensor_id;sensor_type;location;lat;lon;timestamp;P1;durP1;ratioP1;P2;durP2;ratioP2
40501;SDS011;29631;49.168;9.848;2023-05-08T00:02:15;1.73;;;1.63;;
40501;SDS011;29631;49.168;9.848;2023-05-08T00:04:40;1.65;;;1.65;;
40501;SDS011;29631;49.168;9.848;2023-05-08T00:07:06;1.50;;;1.50;;
40501;SDS011;29631;49.168;9.848;2023-05-08T00:09:32;1.83;;;1.73;;
40501;SDS011;29631;49.168;9.848;2023-05-08T00:11:57;1.65;;;1.55;;
40501;SDS011;29631;49.168;9.848;2023-05-08T00:14:23;2.40;;;2.30;;
40501;SDS011;29631;49.168;9.848;2023-05-08T00:16:49;2.20;;;2.10;;
40501;SDS011;29631;49.168;9.848;2023-05-08T00:19:15;2.30;;;2.20;;
40501;SDS011;29631;49.168;9.848;2023-05-08T00:21:40;2.30;;;2.20;;
40501;SDS011;29631;49.168;9.848;2023-05-08T00:24:06;2.08;;;2.08;;
40501;SDS011;29631;49.168;9.848;2023-05-08T00:26:32;2.17;;;2.08;;
40501;SDS011;29631;49.168;9.848;2023-05-08T00:28:58;2.60;;;2.40;;
40501;SDS011;29631;49.168;9.848;2023-05-08T00:31:23;2.25;;;2.15;;
40501;SDS011;29631;49.168;9.848;2023-05-08T00:33:49;1.70;;;1.70;;
40501;SDS011;29631;49.168;9.848;2023-05-08T00:36:15;2.08;;;1.98;;
40501;SDS011;29631;49.168;9.848;2023-05-08T00:38:41;2.47;;;2.38;;
40501;SDS011;29631;49.168;9.848;2023-05-08T00:41:07;2.97;;;2.60;;
40501;SDS011;29631;49.168;9.848;2023-05-08T00:43:32;2.58;;;2.47;;
40501;SDS011;29631;49.168;9.848;2023-05-08T00:45:59;2.28;;;2.17;;
40501;SDS011;29631;49.168;9.848;2023-05-08T00:48:29;2.97;;;2.80;;
40501;SDS011;29631;49.168;9.848;2023-05-08T00:50:58;2.40;;;2.30;;
40501;SDS011;29631;49.168;9.848;2023-05-08T00:53:27;2.92;;;2.58;;
40501;SDS011;29631;49.168;9.848;2023-05-08T00:55:54;2.83;;;2.72;;
40501;SDS011;29631;49.168;9.848;2023-05-08T00:58:21;2.78;;;2.67;;
40501;SDS011;29631;49.168;9.848;2023-05-08T01:00:49;2.75;;;2.65;;
40501;SDS011;29631;49.168;9.848;2023-05-08T01:03:19;2.72;;;2.63;;
40501;SDS011;29631;49.168;9.848;2023-05-08T01:05:47;2.90;;;2.80;;
40501;SDS011;29631;49.168;9.848;2023-05-08T01:08:13;3.40;;;3.20;;
40501;SDS011;29631;49.168;9.848;2023-05-08T01:17:00;3.17;;;2.88;;
40501;SDS011;29631;49.168;9.848;2023-05-08T01:20:04;2.80;;;2.70;;
40501;SDS011;29631;49.168;9.848;2023-05-08T01:23:09;3.30;;;3.03;;
40501;SDS011;29631;49.168;9.848;2023-05-08T01:32:16;2.95;;;2.85;;
40501;SDS011;29631;49.168;9.848;2023-05-08T01:37:36;3.30;;;3.15;;
40501;SDS011;29631;49.168;9.848;2023-05-08T01:40:27;3.75;;;3.45;;
40501;SDS011;29631;49.168;9.848;2023-05-08T01:43:07;3.05;;;2.95;;
40501;SDS011;29631;49.168;9.848;2023-05-08T01:46:08;3.45;;;3.25;;
40501;SDS011;29631;49.168;9.848;2023-05-08T01:48:48;3.25;;;3.05;;
40501;SDS011;29631;49.168;9.848;2023-05-08T01:51:20;2.97;;;2.88;;
40501;SDS011;29631;49.168;9.848;2023-05-08T01:53:51;2.55;;;2.45;;
40501;SDS011;29631;49.168;9.848;2023-05-08T01:56:24;2.83;;;2.72;;
40501;SDS011;29631;49.168;9.848;2023-05-08T01:58:54;3.03;;;2.92;;
40501;SDS011;29631;49.168;9.848;2023-05-08T02:01:23;3.05;;;2.95;;
40501;SDS011;29631;49.168;9.848;2023-05-08T02:03:53;2.97;;;2.88;;
40501;SDS011;29631;49.168;9.848;2023-05-08T02:06:20;3.40;;;3.20;;
40501;SDS011;29631;49.168;9.848;2023-05-08T02:08:47;3.35;;;3.25;;
40501;SDS011;29631;49.168;9.848;2023-05-08T02:11:14;2.95;;;2.85;;
40501;SDS011;29631;49.168;9.848;2023-05-08T02:13:43;3.17;;;2.97;;
40501;SDS011;29631;49.168;9.848;2023-05-08T02:16:12;3.33;;;3.13;;
40501;SDS011;29631;49.168;9.848;2023-05-08T02:18:40;3.80;;;3.50;;
40501;SDS011;29631;49.168;9.848;2023-05-08T02:21:12;3.83;;;3.63;;
40501;SDS011;29631;49.168;9.848;2023-05-08T02:23:39;3.55;;;3.35;;
40501;SDS011;29631;49.168;9.848;2023-05-08T02:26:07;3.50;;;3.30;;
40501;SDS011;29631;49.168;9.848;2023-05-08T02:28:34;3.78;;;3.58;;
40501;SDS011;29631;49.168;9.848;2023-05-08T02:31:01;3.70;;;3.50;;
40501;SDS011;29631;49.168;9.848;2023-05-08T02:33:29;4.07;;;3.78;;
40501;SDS011;29631;49.168;9.848;2023-05-08T02:35:55;4.55;;;4.20;;
40501;SDS011;29631;49.168;9.848;2023-05-08T02:38:23;4.80;;;4.35;;
40501;SDS011;29631;49.168;9.848;2023-05-08T02:40:52;4.55;;;4.30;;
40501;SDS011;29631;49.168;9.848;2023-05-08T02:43:24;4.55;;;4.35;;
40501;SDS011;29631;49.168;9.848;2023-05-08T02:45:59;4.45;;;4.25;;
40501;SDS011;29631;49.168;9.848;2023-05-08T02:48:32;4.55;;;4.25;;
40501;SDS011;29631;49.168;9.848;2023-05-08T02:54:03;5.40;;;5.00;;
40501;SDS011;29631;49.168;9.848;2023-05-08T02:56:58;4.85;;;4.55;;
40501;SDS011;29631;49.168;9.848;2023-05-08T03:00:32;5.55;;;5.13;;
40501;SDS011;29631;49.168;9.848;2023-05-08T03:03:18;5.10;;;4.80;;
40501;SDS011;29631;49.168;9.848;2023-05-08T03:05:53;5.65;;;5.25;;
40501;SDS011;29631;49.168;9.848;2023-05-08T03:08:28;6.00;;;5.50;;
40501;SDS011;29631;49.168;9.848;2023-05-08T03:10:58;5.88;;;5.47;;
40501;SDS011;29631;49.168;9.848;2023-05-08T03:13:30;5.85;;;5.45;;
40501;SDS011;29631;49.168;9.848;2023-05-08T03:16:01;6.63;;;6.05;;
40501;SDS011;29631;49.168;9.848;2023-05-08T03:21:23;6.00;;;5.53;;
40501;SDS011;29631;49.168;9.848;2023-05-08T03:23:52;6.50;;;6.10;;
40501;SDS011;29631;49.168;9.848;2023-05-08T03:26:21;6.60;;;6.10;;
40501;SDS011;29631;49.168;9.848;2023-05-08T03:28:47;6.60;;;6.10;;
40501;SDS011;29631;49.168;9.848;2023-05-08T03:31:16;6.22;;;5.82;;
40501;SDS011;29631;49.168;9.848;2023-05-08T03:33:47;7.45;;;6.47;;
40501;SDS011;29631;49.168;9.848;2023-05-08T03:36:17;7.22;;;6.68;;
40501;SDS011;29631;49.168;9.848;2023-05-08T03:38:43;6.95;;;6.28;;
40501;SDS011;29631;49.168;9.848;2023-05-08T03:41:09;6.95;;;6.35;;
40501;SDS011;29631;49.168;9.848;2023-05-08T03:43:36;7.03;;;6.53;;
40501;SDS011;29631;49.168;9.848;2023-05-08T03:46:03;6.57;;;6.07;;
40501;SDS011;29631;49.168;9.848;2023-05-08T03:48:31;7.10;;;6.60;;
40501;SDS011;29631;49.168;9.848;2023-05-08T03:51:01;7.43;;;6.82;;
40501;SDS011;29631;49.168;9.848;2023-05-08T03:53:29;6.50;;;6.10;;
40501;SDS011;29631;49.168;9.848;2023-05-08T03:55:57;6.43;;;5.93;;
40501;SDS011;29631;49.168;9.848;2023-05-08T03:58:30;6.97;;;6.57;;
40501;SDS011;29631;49.168;9.848;2023-05-08T04:01:27;6.65;;;6.07;;
40501;SDS011;29631;49.168;9.848;2023-05-08T04:04:10;6.78;;;6.35;;
40501;SDS011;29631;49.168;9.848;2023-05-08T04:12:58;6.22;;;5.72;;
40501;SDS011;29631;49.168;9.848;2023-05-08T04:15:43;6.72;;;6.22;;
40501;SDS011;29631;49.168;9.848;2023-05-08T04:18:17;6.97;;;6.47;;
40501;SDS011;29631;49.168;9.848;2023-05-08T04:20:46;6.90;;;6.40;;
40501;SDS011;29631;49.168;9.848;2023-05-08T04:23:14;7.35;;;6.85;;
40501;SDS011;29631;49.168;9.848;2023-05-08T04:25:44;7.90;;;7.30;;
40501;SDS011;29631;49.168;9.848;2023-05-08T04:28:12;7.07;;;6.57;;
40501;SDS011;29631;49.168;9.848;2023-05-08T04:30:38;6.75;;;6.15;;
40501;SDS011;29631;49.168;9.848;2023-05-08T04:33:05;7.55;;;6.95;;
40501;SDS011;29631;49.168;9.848;2023-05-08T04:35:32;7.38;;;6.88;;
40501;SDS011;29631;49.168;9.848;2023-05-08T04:37:58;7.45;;;6.75;;
40501;SDS011;29631;49.168;9.848;2023-05-08T04:40:24;7.05;;;6.47;;
40501;SDS011;29631;49.168;9.848;2023-05-08T04:42:50;7.22;;;6.63;;
40501;SDS011;29631;49.168;9.848;2023-05-08T04:45:16;6.15;;;5.75;;
40501;SDS011;29631;49.168;9.848;2023-05-08T04:47:42;7.20;;;6.70;;
40501;SDS011;29631;49.168;9.848;2023-05-08T04:50:08;6.80;;;6.30;;
40501;SDS011;29631;49.168;9.848;2023-05-08T04:52:35;7.10;;;6.50;;
40501;SDS011;29631;49.168;9.848;2023-05-08T04:55:01;7.40;;;6.90;;
40501;SDS011;29631;49.168;9.848;2023-05-08T04:57:27;6.80;;;6.40;;
40501;SDS011;29631;49.168;9.848;2023-05-08T04:59:53;6.57;;;6.15;;
40501;SDS011;29631;49.168;9.848;2023-05-08T05:02:18;6.72;;;6.22;;
40501;SDS011;29631;49.168;9.848;2023-05-08T05:04:44;6.70;;;6.22;;
40501;SDS011;29631;49.168;9.848;2023-05-08T05:07:10;7.20;;;6.70;;
40501;SDS011;29631;49.168;9.848;2023-05-08T05:09:36;7.00;;;6.53;;
40501;SDS011;29631;49.168;9.848;2023-05-08T05:12:03;6.80;;;6.25;;
40501;SDS011;29631;49.168;9.848;2023-05-08T05:14:30;7.10;;;6.60;;
40501;SDS011;29631;49.168;9.848;2023-05-08T05:16:56;6.47;;;5.97;;
40501;SDS011;29631;49.168;9.848;2023-05-08T05:19:22;7.10;;;6.60;;
40501;SDS011;29631;49.168;9.848;2023-05-08T05:21:47;6.03;;;5.60;;
40501;SDS011;29631;49.168;9.848;2023-05-08T05:24:13;7.13;;;6.53;;
40501;SDS011;29631;49.168;9.848;2023-05-08T05:26:39;7.05;;;6.55;;
40501;SDS011;29631;49.168;9.848;2023-05-08T05:29:05;6.93;;;6.45;;
40501;SDS011;29631;49.168;9.848;2023-05-08T05:31:30;6.90;;;6.47;;
40501;SDS011;29631;49.168;9.848;2023-05-08T05:33:56;6.85;;;6.35;;
40501;SDS011;29631;49.168;9.848;2023-05-08T05:36:22;7.20;;;6.70;;
40501;SDS011;29631;49.168;9.848;2023-05-08T05:38:48;7.05;;;6.55;;
40501;SDS011;29631;49.168;9.848;2023-05-08T05:41:14;6.40;;;5.97;;
40501;SDS011;29631;49.168;9.848;2023-05-08T05:43:40;6.75;;;6.35;;
40501;SDS011;29631;49.168;9.848;2023-05-08T05:46:06;6.63;;;6.13;;
40501;SDS011;29631;49.168;9.848;2023-05-08T05:48:33;6.93;;;6.43;;
40501;SDS011;29631;49.168;9.848;2023-05-08T05:51:00;6.57;;;6.18;;
40501;SDS011;29631;49.168;9.848;2023-05-08T05:53:25;6.82;;;6.32;;
40501;SDS011;29631;49.168;9.848;2023-05-08T05:55:52;6.75;;;6.18;;
40501;SDS011;29631;49.168;9.848;2023-05-08T05:58:18;7.25;;;6.75;;
40501;SDS011;29631;49.168;9.848;2023-05-08T06:00:44;6.65;;;6.15;;
40501;SDS011;29631;49.168;9.848;2023-05-08T06:03:10;7.28;;;6.78;;
40501;SDS011;29631;49.168;9.848;2023-05-08T06:05:36;7.32;;;6.72;;
40501;SDS011;29631;49.168;9.848;2023-05-08T06:08:02;6.85;;;6.35;;
40501;SDS011;29631;49.168;9.848;2023-05-08T06:10:29;7.18;;;6.65;;
40501;SDS011;29631;49.168;9.848;2023-05-08T06:12:55;6.82;;;6.32;;
40501;SDS011;29631;49.168;9.848;2023-05-08T06:15:21;7.03;;;6.53;;
40501;SDS011;29631;49.168;9.848;2023-05-08T06:17:47;6.13;;;5.70;;
40501;SDS011;29631;49.168;9.848;2023-05-08T06:20:13;6.07;;;5.68;;
40501;SDS011;29631;49.168;9.848;2023-05-08T06:22:40;6.45;;;5.95;;
40501;SDS011;29631;49.168;9.848;2023-05-08T06:25:06;6.70;;;6.20;;
40501;SDS011;29631;49.168;9.848;2023-05-08T06:27:33;6.28;;;5.88;;
40501;SDS011;29631;49.168;9.848;2023-05-08T06:29:59;6.55;;;6.15;;
40501;SDS011;29631;49.168;9.848;2023-05-08T06:32:26;7.05;;;6.55;;
40501;SDS011;29631;49.168;9.848;2023-05-08T06:34:51;6.47;;;6.05;;
40501;SDS011;29631;49.168;9.848;2023-05-08T06:37:17;6.55;;;6.00;;
40501;SDS011;29631;49.168;9.848;2023-05-08T06:39:43;6.07;;;5.68;;
40501;SDS011;29631;49.168;9.848;2023-05-08T06:42:09;6.70;;;6.20;;
40501;SDS011;29631;49.168;9.848;2023-05-08T06:44:34;6.85;;;6.30;;
40501;SDS011;29631;49.168;9.848;2023-05-08T06:47:00;6.85;;;6.40;;
40501;SDS011;29631;49.168;9.848;2023-05-08T06:49:26;6.80;;;6.30;;
40501;SDS011;29631;49.168;9.848;2023-05-08T06:51:52;6.68;;;6.18;;
40501;SDS011;29631;49.168;9.848;2023-05-08T06:54:18;6.18;;;5.78;;
40501;SDS011;29631;49.168;9.848;2023-05-08T06:56:44;6.93;;;6.32;;
40501;SDS011;29631;49.168;9.848;2023-05-08T06:59:10;6.35;;;5.85;;
40501;SDS011;29631;49.168;9.848;2023-05-08T07:01:35;6.22;;;5.80;;
40501;SDS011;29631;49.168;9.848;2023-05-08T07:04:01;6.40;;;5.90;;
40501;SDS011;29631;49.168;9.848;2023-05-08T07:06:31;6.47;;;6.07;;
40501;SDS011;29631;49.168;9.848;2023-05-08T07:08:57;6.40;;;5.90;;
40501;SDS011;29631;49.168;9.848;2023-05-08T07:11:23;6.70;;;5.97;;
40501;SDS011;29631;49.168;9.848;2023-05-08T07:13:49;6.47;;;6.07;;
40501;SDS011;29631;49.168;9.848;2023-05-08T07:16:15;6.22;;;5.82;;
40501;SDS011;29631;49.168;9.848;2023-05-08T07:18:41;6.88;;;6.38;;
40501;SDS011;29631;49.168;9.848;2023-05-08T07:21:07;6.07;;;5.63;;
40501;SDS011;29631;49.168;9.848;2023-05-08T07:23:33;6.35;;;5.95;;
40501;SDS011;29631;49.168;9.848;2023-05-08T07:25:59;5.85;;;5.45;;
40501;SDS011;29631;49.168;9.848;2023-05-08T07:28:25;6.10;;;5.70;;
40501;SDS011;29631;49.168;9.848;2023-05-08T07:30:51;6.53;;;6.13;;
40501;SDS011;29631;49.168;9.848;2023-05-08T07:33:17;6.35;;;5.95;;
40501;SDS011;29631;49.168;9.848;2023-05-08T07:35:43;6.82;;;6.32;;
40501;SDS011;29631;49.168;9.848;2023-05-08T07:38:09;6.28;;;5.72;;
40501;SDS011;29631;49.168;9.848;2023-05-08T07:40:35;6.30;;;5.90;;
40501;SDS011;29631;49.168;9.848;2023-05-08T07:43:01;6.10;;;5.70;;
40501;SDS011;29631;49.168;9.848;2023-05-08T07:45:26;6.78;;;6.30;;
40501;SDS011;29631;49.168;9.848;2023-05-08T07:47:53;6.47;;;5.97;;
40501;SDS011;29631;49.168;9.848;2023-05-08T07:50:21;6.70;;;6.20;;
40501;SDS011;29631;49.168;9.848;2023-05-08T07:52:48;6.78;;;6.28;;
40501;SDS011;29631;49.168;9.848;2023-05-08T07:55:14;6.43;;;5.97;;
40501;SDS011;29631;49.168;9.848;2023-05-08T07:57:41;6.13;;;5.72;;
40501;SDS011;29631;49.168;9.848;2023-05-08T08:00:08;6.50;;;6.07;;
40501;SDS011;29631;49.168;9.848;2023-05-08T08:02:37;6.65;;;6.25;;
40501;SDS011;29631;49.168;9.848;2023-05-08T08:05:06;6.70;;;6.15;;
40501;SDS011;29631;49.168;9.848;2023-05-08T08:07:33;7.03;;;6.43;;
40501;SDS011;29631;49.168;9.848;2023-05-08T08:09:59;5.95;;;5.55;;
40501;SDS011;29631;49.168;9.848;2023-05-08T08:12:26;6.15;;;5.65;;
40501;SDS011;29631;49.168;9.848;2023-05-08T08:14:52;6.22;;;5.82;;
40501;SDS011;29631;49.168;9.848;2023-05-08T08:17:18;6.55;;;6.15;;
40501;SDS011;29631;49.168;9.848;2023-05-08T08:19:44;6.60;;;6.00;;
40501;SDS011;29631;49.168;9.848;2023-05-08T08:22:10;6.72;;;6.32;;
40501;SDS011;29631;49.168;9.848;2023-05-08T08:24:36;6.90;;;6.40;;
40501;SDS011;29631;49.168;9.848;2023-05-08T08:27:01;7.07;;;6.43;;
40501;SDS011;29631;49.168;9.848;2023-05-08T08:29:28;6.35;;;5.85;;
40501;SDS011;29631;49.168;9.848;2023-05-08T08:31:55;6.85;;;6.35;;
40501;SDS011;29631;49.168;9.848;2023-05-08T08:34:20;6.43;;;6.00;;
40501;SDS011;29631;49.168;9.848;2023-05-08T08:36:46;6.95;;;6.45;;
40501;SDS011;29631;49.168;9.848;2023-05-08T08:39:12;7.20;;;6.70;;
40501;SDS011;29631;49.168;9.848;2023-05-08T08:41:38;6.32;;;5.93;;
40501;SDS011;29631;49.168;9.848;2023-05-08T08:44:04;6.78;;;6.18;;
40501;SDS011;29631;49.168;9.848;2023-05-08T08:46:31;7.55;;;6.95;;
40501;SDS011;29631;49.168;9.848;2023-05-08T08:48:57;6.60;;;6.10;;
40501;SDS011;29631;49.168;9.848;2023-05-08T08:51:27;7.07;;;6.57;;
40501;SDS011;29631;49.168;9.848;2023-05-08T08:54:03;6.80;;;6.30;;
40501;SDS011;29631;49.168;9.848;2023-05-08T08:56:35;6.13;;;5.72;;
40501;SDS011;29631;49.168;9.848;2023-05-08T08:59:03;7.28;;;6.68;;
40501;SDS011;29631;49.168;9.848;2023-05-08T09:01:30;6.70;;;6.30;;
40501;SDS011;29631;49.168;9.848;2023-05-08T09:04:02;7.25;;;6.65;;
40501;SDS011;29631;49.168;9.848;2023-05-08T09:06:29;6.68;;;6.18;;
40501;SDS011;29631;49.168;9.848;2023-05-08T09:08:59;7.35;;;6.85;;
40501;SDS011;29631;49.168;9.848;2023-05-08T09:11:26;6.88;;;6.28;;
40501;SDS011;29631;49.168;9.848;2023-05-08T09:13:56;6.63;;;6.22;;
40501;SDS011;29631;49.168;9.848;2023-05-08T09:16:23;7.53;;;6.95;;
40501;SDS011;29631;49.168;9.848;2023-05-08T09:18:49;6.95;;;6.53;;
40501;SDS011;29631;49.168;9.848;2023-05-08T09:21:15;7.15;;;6.65;;
40501;SDS011;29631;49.168;9.848;2023-05-08T09:23:54;7.50;;;7.00;;
40501;SDS011;29631;49.168;9.848;2023-05-08T09:31:45;7.03;;;6.63;;
40501;SDS011;29631;49.168;9.848;2023-05-08T09:36:52;7.25;;;6.65;;
40501;SDS011;29631;49.168;9.848;2023-05-08T09:39:38;7.22;;;6.72;;
40501;SDS011;29631;49.168;9.848;2023-05-08T09:42:06;7.43;;;6.93;;
40501;SDS011;29631;49.168;9.848;2023-05-08T09:44:47;7.07;;;6.68;;
40501;SDS011;29631;49.168;9.848;2023-05-08T09:47:19;7.50;;;6.97;;
40501;SDS011;29631;49.168;9.848;2023-05-08T09:52:30;7.45;;;6.95;;
40501;SDS011;29631;49.168;9.848;2023-05-08T09:55:01;7.75;;;7.15;;
40501;SDS011;29631;49.168;9.848;2023-05-08T09:57:33;7.53;;;7.03;;
40501;SDS011;29631;49.168;9.848;2023-05-08T10:00:09;7.28;;;6.70;;
40501;SDS011;29631;49.168;9.848;2023-05-08T10:02:38;7.30;;;6.80;;
40501;SDS011;29631;49.168;9.848;2023-05-08T10:05:21;7.25;;;6.75;;
40501;SDS011;29631;49.168;9.848;2023-05-08T10:10:48;7.35;;;6.75;;
40501;SDS011;29631;49.168;9.848;2023-05-08T10:13:14;7.18;;;6.68;;
40501;SDS011;29631;49.168;9.848;2023-05-08T10:15:41;7.95;;;7.35;;
40501;SDS011;29631;49.168;9.848;2023-05-08T10:18:08;8.27;;;7.57;;
40501;SDS011;29631;49.168;9.848;2023-05-08T10:20:39;7.82;;;7.03;;
40501;SDS011;29631;49.168;9.848;2023-05-08T10:23:09;7.78;;;7.28;;
40501;SDS011;29631;49.168;9.848;2023-05-08T10:25:42;8.05;;;7.35;;
40501;SDS011;29631;49.168;9.848;2023-05-08T10:28:17;8.25;;;7.55;;
40501;SDS011;29631;49.168;9.848;2023-05-08T10:31:21;7.32;;;6.82;;
40501;SDS011;29631;49.168;9.848;2023-05-08T10:33:55;7.90;;;7.40;;
40501;SDS011;29631;49.168;9.848;2023-05-08T10:36:25;8.40;;;7.85;;
40501;SDS011;29631;49.168;9.848;2023-05-08T10:38:52;7.70;;;7.13;;
40501;SDS011;29631;49.168;9.848;2023-05-08T10:41:20;7.63;;;7.13;;
40501;SDS011;29631;49.168;9.848;2023-05-08T10:43:47;8.60;;;8.00;;
40501;SDS011;29631;49.168;9.848;2023-05-08T10:46:20;8.00;;;7.50;;
40501;SDS011;29631;49.168;9.848;2023-05-08T10:48:55;8.05;;;7.53;;
40501;SDS011;29631;49.168;9.848;2023-05-08T10:57:30;8.10;;;7.50;;
40501;SDS011;29631;49.168;9.848;2023-05-08T10:59:56;8.63;;;8.02;;
40501;SDS011;29631;49.168;9.848;2023-05-08T11:02:28;9.20;;;8.52;;
40501;SDS011;29631;49.168;9.848;2023-05-08T11:05:15;8.50;;;7.80;;
40501;SDS011;29631;49.168;9.848;2023-05-08T11:07:59;8.63;;;7.93;;
40501;SDS011;29631;49.168;9.848;2023-05-08T11:10:29;8.95;;;8.35;;
40501;SDS011;29631;49.168;9.848;2023-05-08T11:12:56;8.82;;;8.13;;
40501;SDS011;29631;49.168;9.848;2023-05-08T11:15:38;8.55;;;7.95;;
40501;SDS011;29631;49.168;9.848;2023-05-08T11:18:07;8.70;;;8.10;;
40501;SDS011;29631;49.168;9.848;2023-05-08T11:20:39;8.88;;;8.27;;
40501;SDS011;29631;49.168;9.848;2023-05-08T11:25:57;8.35;;;7.80;;
40501;SDS011;29631;49.168;9.848;2023-05-08T11:28:26;9.35;;;8.65;;
40501;SDS011;29631;49.168;9.848;2023-05-08T11:31:03;9.15;;;8.43;;
40501;SDS011;29631;49.168;9.848;2023-05-08T11:33:31;9.00;;;8.40;;
40501;SDS011;29631;49.168;9.848;2023-05-08T11:38:40;8.88;;;8.25;;
40501;SDS011;29631;49.168;9.848;2023-05-08T11:41:19;10.32;;;9.52;;
40501;SDS011;29631;49.168;9.848;2023-05-08T11:46:48;9.10;;;8.50;;
40501;SDS011;29631;49.168;9.848;2023-05-08T11:49:19;9.57;;;8.90;;
40501;SDS011;29631;49.168;9.848;2023-05-08T11:51:48;9.00;;;8.30;;
40501;SDS011;29631;49.168;9.848;2023-05-08T11:54:19;9.35;;;8.65;;
40501;SDS011;29631;49.168;9.848;2023-05-08T11:56:46;8.52;;;7.93;;
40501;SDS011;29631;49.168;9.848;2023-05-08T11:59:13;9.27;;;8.60;;
40501;SDS011;29631;49.168;9.848;2023-05-08T12:01:40;9.25;;;8.45;;
40501;SDS011;29631;49.168;9.848;2023-05-08T12:04:07;8.43;;;7.88;;
40501;SDS011;29631;49.168;9.848;2023-05-08T12:06:36;9.15;;;8.52;;
40501;SDS011;29631;49.168;9.848;2023-05-08T12:09:11;9.25;;;8.55;;
40501;SDS011;29631;49.168;9.848;2023-05-08T12:11:42;8.55;;;7.85;;
40501;SDS011;29631;49.168;9.848;2023-05-08T12:14:09;7.82;;;7.22;;
40501;SDS011;29631;49.168;9.848;2023-05-08T12:16:37;7.72;;;7.13;;
40501;SDS011;29631;49.168;9.848;2023-05-08T12:19:13;7.10;;;6.70;;
40501;SDS011;29631;49.168;9.848;2023-05-08T12:21:44;6.65;;;6.25;;
40501;SDS011;29631;49.168;9.848;2023-05-08T12:24:14;7.05;;;6.55;;
40501;SDS011;29631;49.168;9.848;2023-05-08T12:26:46;7.47;;;7.00;;
40501;SDS011;29631;49.168;9.848;2023-05-08T12:29:13;7.63;;;7.13;;
40501;SDS011;29631;49.168;9.848;2023-05-08T12:31:42;6.70;;;6.25;;
40501;SDS011;29631;49.168;9.848;2023-05-08T12:34:08;6.85;;;6.35;;
40501;SDS011;29631;49.168;9.848;2023-05-08T12:36:35;7.18;;;6.72;;
40501;SDS011;29631;49.168;9.848;2023-05-08T12:39:08;7.60;;;7.10;;
40501;SDS011;29631;49.168;9.848;2023-05-08T12:41:46;7.55;;;7.15;;
40501;SDS011;29631;49.168;9.848;2023-05-08T12:44:21;7.85;;;7.35;;
40501;SDS011;29631;49.168;9.848;2023-05-08T12:46:52;7.05;;;6.55;;
40501;SDS011;29631;49.168;9.848;2023-05-08T12:49:26;7.63;;;7.13;;
40501;SDS011;29631;49.168;9.848;2023-05-08T12:52:01;7.80;;;7.20;;
40501;SDS011;29631;49.168;9.848;2023-05-08T12:54:35;8.15;;;7.55;;
40501;SDS011;29631;49.168;9.848;2023-05-08T12:57:13;8.32;;;7.72;;
40501;SDS011;29631;49.168;9.848;2023-05-08T12:59:43;8.27;;;7.65;;
40501;SDS011;29631;49.168;9.848;2023-05-08T13:02:16;9.00;;;8.40;;
40501;SDS011;29631;49.168;9.848;2023-05-08T13:04:49;7.65;;;7.15;;
40501;SDS011;29631;49.168;9.848;2023-05-08T13:07:19;7.97;;;7.38;;
40501;SDS011;29631;49.168;9.848;2023-05-08T13:09:58;9.30;;;8.60;;
40501;SDS011;29631;49.168;9.848;2023-05-08T13:12:29;8.88;;;8.23;;
40501;SDS011;29631;49.168;9.848;2023-05-08T13:14:55;9.15;;;8.55;;
40501;SDS011;29631;49.168;9.848;2023-05-08T13:17:21;8.88;;;8.27;;
40501;SDS011;29631;49.168;9.848;2023-05-08T13:19:47;8.07;;;7.55;;
40501;SDS011;29631;49.168;9.848;2023-05-08T13:22:12;8.68;;;8.07;;
40501;SDS011;29631;49.168;9.848;2023-05-08T13:24:38;8.63;;;8.02;;
40501;SDS011;29631;49.168;9.848;2023-05-08T13:27:04;8.98;;;8.32;;
40501;SDS011;29631;49.168;9.848;2023-05-08T13:29:29;8.90;;;7.93;;
40501;SDS011;29631;49.168;9.848;2023-05-08T13:31:55;8.27;;;7.78;;
40501;SDS011;29631;49.168;9.848;2023-05-08T13:34:21;8.57;;;7.88;;
40501;SDS011;29631;49.168;9.848;2023-05-08T13:36:46;9.80;;;9.10;;
40501;SDS011;29631;49.168;9.848;2023-05-08T13:39:13;8.88;;;8.27;;
40501;SDS011;29631;49.168;9.848;2023-05-08T13:41:39;8.50;;;7.80;;
40501;SDS011;29631;49.168;9.848;2023-05-08T13:44:05;8.40;;;7.80;;
40501;SDS011;29631;49.168;9.848;2023-05-08T13:46:30;8.30;;;7.70;;
40501;SDS011;29631;49.168;9.848;2023-05-08T13:48:56;8.02;;;7.43;;
40501;SDS011;29631;49.168;9.848;2023-05-08T13:51:22;8.07;;;7.40;;
40501;SDS011;29631;49.168;9.848;2023-05-08T13:53:47;8.65;;;8.00;;
40501;SDS011;29631;49.168;9.848;2023-05-08T13:56:13;8.65;;;8.00;;
40501;SDS011;29631;49.168;9.848;2023-05-08T13:58:39;8.50;;;7.90;;
40501;SDS011;29631;49.168;9.848;2023-05-08T14:01:05;7.93;;;7.32;;
40501;SDS011;29631;49.168;9.848;2023-05-08T14:03:30;7.93;;;7.43;;
40501;SDS011;29631;49.168;9.848;2023-05-08T14:05:56;7.68;;;7.18;;
40501;SDS011;29631;49.168;9.848;2023-05-08T14:08:22;7.38;;;6.88;;
40501;SDS011;29631;49.168;9.848;2023-05-08T14:10:48;7.28;;;6.78;;
40501;SDS011;29631;49.168;9.848;2023-05-08T14:13:13;7.68;;;7.18;;
40501;SDS011;29631;49.168;9.848;2023-05-08T14:15:39;8.23;;;7.72;;
40501;SDS011;29631;49.168;9.848;2023-05-08T14:18:05;7.22;;;6.72;;
40501;SDS011;29631;49.168;9.848;2023-05-08T14:20:31;8.20;;;7.50;;
40501;SDS011;29631;49.168;9.848;2023-05-08T14:22:57;7.70;;;7.20;;
40501;SDS011;29631;49.168;9.848;2023-05-08T14:25:23;7.45;;;6.70;;
40501;SDS011;29631;49.168;9.848;2023-05-08T14:27:48;8.10;;;7.53;;
40501;SDS011;29631;49.168;9.848;2023-05-08T14:30:14;7.47;;;6.97;;
40501;SDS011;29631;49.168;9.848;2023-05-08T14:32:40;8.00;;;7.40;;
40501;SDS011;29631;49.168;9.848;2023-05-08T14:35:05;7.97;;;7.43;;
40501;SDS011;29631;49.168;9.848;2023-05-08T14:37:34;7.03;;;6.57;;
40501;SDS011;29631;49.168;9.848;2023-05-08T14:40:00;7.18;;;6.68;;
40501;SDS011;29631;49.168;9.848;2023-05-08T14:42:25;7.10;;;6.65;;
40501;SDS011;29631;49.168;9.848;2023-05-08T14:44:51;6.90;;;6.43;;
40501;SDS011;29631;49.168;9.848;2023-05-08T14:47:17;7.88;;;7.28;;
40501;SDS011;29631;49.168;9.848;2023-05-08T14:49:43;7.05;;;6.45;;
40501;SDS011;29631;49.168;9.848;2023-05-08T14:52:08;7.25;;;6.65;;
40501;SDS011;29631;49.168;9.848;2023-05-08T14:54:34;6.90;;;6.40;;
40501;SDS011;29631;49.168;9.848;2023-05-08T14:57:00;7.20;;;6.60;;
40501;SDS011;29631;49.168;9.848;2023-05-08T14:59:26;6.70;;;6.25;;
40501;SDS011;29631;49.168;9.848;2023-05-08T15:01:51;7.40;;;6.82;;
40501;SDS011;29631;49.168;9.848;2023-05-08T15:04:17;7.47;;;6.97;;
40501;SDS011;29631;49.168;9.848;2023-05-08T15:06:43;6.72;;;6.22;;
40501;SDS011;29631;49.168;9.848;2023-05-08T15:09:08;6.97;;;6.50;;
40501;SDS011;29631;49.168;9.848;2023-05-08T15:11:35;7.80;;;7.30;;
40501;SDS011;29631;49.168;9.848;2023-05-08T15:14:02;7.72;;;7.00;;
40501;SDS011;29631;49.168;9.848;2023-05-08T15:16:28;8.27;;;7.68;;
40501;SDS011;29631;49.168;9.848;2023-05-08T15:18:54;8.57;;;7.88;;
40501;SDS011;29631;49.168;9.848;2023-05-08T15:21:20;7.38;;;6.82;;
40501;SDS011;29631;49.168;9.848;2023-05-08T15:23:50;7.88;;;7.38;;
40501;SDS011;29631;49.168;9.848;2023-05-08T15:26:20;7.50;;;7.00;;
40501;SDS011;29631;49.168;9.848;2023-05-08T15:28:46;8.50;;;7.90;;
40501;SDS011;29631;49.168;9.848;2023-05-08T15:31:12;8.43;;;7.82;;
40501;SDS011;29631;49.168;9.848;2023-05-08T15:33:38;8.88;;;8.27;;
40501;SDS011;29631;49.168;9.848;2023-05-08T15:36:08;8.30;;;7.70;;
40501;SDS011;29631;49.168;9.848;2023-05-08T15:38:38;8.32;;;7.72;;
40501;SDS011;29631;49.168;9.848;2023-05-08T15:41:05;8.35;;;7.85;;
40501;SDS011;29631;49.168;9.848;2023-05-08T15:43:31;8.40;;;7.82;;
40501;SDS011;29631;49.168;9.848;2023-05-08T15:45:56;7.55;;;7.07;;
40501;SDS011;29631;49.168;9.848;2023-05-08T15:48:22;8.55;;;7.95;;
40501;SDS011;29631;49.168;9.848;2023-05-08T15:50:48;8.75;;;8.05;;
40501;SDS011;29631;49.168;9.848;2023-05-08T15:53:13;7.60;;;7.10;;
40501;SDS011;29631;49.168;9.848;2023-05-08T15:55:39;8.18;;;7.68;;